Crane, Washington
Current Conditions -  °F | °C
As of 11:53 PM on Thursday 27 Nov 2014 (Local Time) from KCLM Reporting Station
Moderate Rain Moderate Rain  
Wind Chill: 12°   Ceiling: 6000
Heat Index: 12°   Visibility: 6mi
Dew Point:   Wind: 7mph
Humidity: 86%   Direction: 250°WSW
Pressure: 29.59"   Gusts: NA
Location:  48.1359°N, 123.734°W
Report Text: KCLM 280753Z AUTO 25006KT 6SM RA BR OVC060 12/09 A2959 RMK AO2 SLP018 P0004 T01170094 401610100 $
Loading
Personal Weather Stations






























Interactive Weather Map New forecast layout! Learn more

10-Day Weather Forecast

Advertisements
Track Severe Weather on mobile